Time;durP1;ratioP1;P1;durP2;ratioP2;P2;SDS_P1;SDS_P2;PMS_P1;PMS_P2;Temp;Humidity;BMP_temperature;BMP_pressure;BME280_temperature;BME280_humidity;BME280_pressure;Samples;Min_cycle;Max_cycle;Signal;HPM_P1;HPM_P2
2022/03/12 00:00:36;;;;;;;5.78;0.70;;;7.70;96.10;;;;;;5130992;27;20027;-79
2022/03/12 00:03:02;;;;;;;3.35;0.47;;;7.60;96.40;;;;;;5133120;27;20011;-79
2022/03/12 00:05:30;;;;;;;2.97;0.40;;;7.60;96.00;;;;;;5112493;28;20503;-80
2022/03/12 00:07:55;;;;;;;4.95;0.70;;;7.50;96.10;;;;;;5130831;27;20027;-80
2022/03/12 00:10:22;;;;;;;2.80;0.50;;;7.60;96.20;;;;;;5130457;27;20050;-80
2022/03/12 00:12:51;;;;;;;3.70;0.60;;;7.60;96.10;;;;;;5131021;28;20119;-80
2022/03/12 00:15:17;;;;;;;5.03;0.50;;;7.60;96.50;;;;;;5128889;28;20479;-80
2022/03/12 00:17:46;;;;;;;1.65;0.38;;;7.50;96.30;;;;;;5129517;27;20030;-80
2022/03/12 00:20:18;;;;;;;2.53;0.55;;;7.50;96.40;;;;;;5113165;27;20022;-80
2022/03/12 00:22:49;;;;;;;1.67;0.43;;;7.50;96.50;;;;;;5139240;27;20023;-80
2022/03/12 00:25:19;;;;;;;4.40;0.70;;;7.50;96.40;;;;;;5130297;27;20504;-80
2022/03/12 00:27:45;;;;;;;1.90;0.50;;;7.50;96.20;;;;;;5130657;27;20039;-80
2022/03/12 00:30:16;;;;;;;3.25;0.73;;;7.50;96.40;;;;;;5114534;28;20035;-80
2022/03/12 00:32:42;;;;;;;1.92;0.50;;;7.40;96.50;;;;;;5129462;28;20028;-80
2022/03/12 00:35:11;;;;;;;2.40;0.50;;;7.50;96.30;;;;;;5129019;27;20526;-81
2022/03/12 00:37:38;;;;;;;2.05;0.40;;;7.50;96.40;;;;;;5130550;28;20072;-80
2022/03/12 00:40:05;;;;;;;4.40;0.65;;;7.50;96.10;;;;;;5130342;27;20026;-80
2022/03/12 00:42:31;;;;;;;3.97;0.45;;;7.40;96.00;;;;;;5114527;27;20023;-80
2022/03/12 00:44:57;;;;;;;3.50;0.40;;;7.40;96.30;;;;;;5134343;27;20513;-80
2022/03/12 00:47:24;;;;;;;4.05;0.50;;;7.40;96.20;;;;;;5115976;27;20039;-80
2022/03/12 00:49:50;;;;;;;3.40;0.60;;;7.40;96.00;;;;;;5115918;27;20483;-80
2022/03/12 00:52:16;;;;;;;4.97;0.60;;;7.40;96.10;;;;;;5134533;27;20038;-80
2022/03/12 00:54:42;;;;;;;3.28;0.60;;;7.40;96.00;;;;;;5133910;27;20020;-80
2022/03/12 00:57:11;;;;;;;3.35;0.57;;;7.30;96.00;;;;;;5117917;27;20403;-80
2022/03/12 00:59:38;;;;;;;3.83;0.60;;;7.30;96.30;;;;;;5134173;27;20015;-80
2022/03/12 01:02:04;;;;;;;2.42;0.50;;;7.30;96.20;;;;;;5134283;27;20046;-80
2022/03/12 01:04:29;;;;;;;5.40;0.70;;;7.30;96.10;;;;;;5134228;27;20065;-80
2022/03/12 01:06:55;;;;;;;3.85;0.60;;;7.40;96.20;;;;;;5133822;27;20034;-80
2022/03/12 01:09:21;;;;;;;4.93;0.60;;;7.40;96.40;;;;;;5134857;27;20488;-80
2022/03/12 01:11:46;;;;;;;3.90;0.70;;;7.40;96.20;;;;;;5134645;27;20387;-80
2022/03/12 01:14:12;;;;;;;3.42;0.60;;;7.40;96.00;;;;;;5132832;27;20411;-80
2022/03/12 01:16:38;;;;;;;3.40;0.82;;;7.40;96.00;;;;;;5133790;27;20027;-80
2022/03/12 01:19:04;;;;;;;2.75;0.73;;;7.40;96.00;;;;;;5115552;27;20023;-80
2022/03/12 01:21:29;;;;;;;1.85;0.43;;;7.30;96.10;;;;;;5144749;27;20479;-80
2022/03/12 01:23:55;;;;;;;3.90;0.70;;;7.30;95.90;;;;;;5135250;27;20031;-80
2022/03/12 01:26:22;;;;;;;3.92;0.80;;;7.30;96.20;;;;;;5133586;27;20036;-80
2022/03/12 01:28:48;;;;;;;4.97;0.70;;;7.30;96.40;;;;;;5133654;27;20510;-80
2022/03/12 01:31:15;;;;;;;3.92;0.45;;;7.30;95.50;;;;;;5133619;27;20029;-80
2022/03/12 01:33:41;;;;;;;2.83;0.45;;;7.30;95.90;;;;;;5133484;27;20027;-80
2022/03/12 01:36:07;;;;;;;2.92;0.55;;;7.20;96.00;;;;;;5135658;27;20019;-80
2022/03/12 01:38:47;;;;;;;2.78;0.68;;;7.20;96.10;;;;;;5133190;27;20019;-80
2022/03/12 01:41:14;;;;;;;4.82;0.73;;;7.30;96.30;;;;;;5114648;27;20106;-80
2022/03/12 01:43:43;;;;;;;2.72;0.75;;;7.30;96.30;;;;;;5133435;27;20025;-80
2022/03/12 01:46:10;;;;;;;3.00;0.52;;;7.20;96.20;;;;;;5133264;27;20102;-80
2022/03/12 01:48:45;;;;;;;4.03;0.47;;;7.20;96.30;;;;;;5133429;27;20467;-80
2022/03/12 01:51:11;;;;;;;5.63;0.68;;;7.20;96.10;;;;;;5135223;27;20376;-80
2022/03/12 01:53:36;;;;;;;2.17;0.47;;;7.20;96.20;;;;;;5130590;27;20045;-80
2022/03/12 01:56:03;;;;;;;2.33;0.80;;;7.20;96.30;;;;;;5132989;27;20019;-80
2022/03/12 01:58:29;;;;;;;4.22;0.55;;;7.20;96.10;;;;;;5133089;27;20407;-80
2022/03/12 02:00:57;;;;;;;3.60;0.60;;;7.20;96.30;;;;;;5133158;27;20024;-80
2022/03/12 02:03:26;;;;;;;4.13;0.45;;;7.20;96.40;;;;;;5134472;27;20155;-80
2022/03/12 02:05:52;;;;;;;3.08;0.50;;;7.30;96.60;;;;;;5112219;28;20034;-80
2022/03/12 02:08:17;;;;;;;6.90;0.90;;;7.30;96.50;;;;;;5127856;27;20030;-80
2022/03/12 02:10:44;;;;;;;3.63;0.95;;;7.40;96.80;;;;;;5132886;27;20107;-80
2022/03/12 02:13:11;;;;;;;4.72;0.70;;;7.50;96.70;;;;;;5132964;27;20023;-80
2022/03/12 02:15:36;;;;;;;7.45;1.10;;;7.60;96.90;;;;;;5132793;27;20027;-79
2022/03/12 02:18:03;;;;;;;6.15;0.77;;;7.50;96.30;;;;;;5134720;27;20085;-79
2022/03/12 02:20:29;;;;;;;4.18;0.75;;;7.50;96.10;;;;;;5135733;27;20027;-79
2022/03/12 02:22:55;;;;;;;5.80;0.80;;;7.50;96.10;;;;;;5120828;27;20025;-79
2022/03/12 02:25:32;;;;;;;3.28;0.80;;;7.40;95.90;;;;;;5113831;27;20080;-79
2022/03/12 02:27:59;;;;;;;3.72;0.82;;;7.30;96.30;;;;;;5114299;27;20043;-79
2022/03/12 02:30:37;;;;;;;6.07;0.70;;;7.30;95.90;;;;;;5133604;27;20072;-79
2022/03/12 02:33:04;;;;;;;4.78;0.82;;;7.20;96.00;;;;;;5133430;27;20022;-79
2022/03/12 02:35:34;;;;;;;3.58;0.70;;;7.20;96.10;;;;;;5132004;27;20684;-79
2022/03/12 02:38:00;;;;;;;4.30;0.80;;;7.20;95.90;;;;;;5132429;27;20545;-79
2022/03/12 02:40:26;;;;;;;4.35;0.70;;;7.20;96.30;;;;;;5132068;27;20041;-79
2022/03/12 02:42:54;;;;;;;3.15;0.80;;;7.20;96.50;;;;;;5132361;27;20027;-79
2022/03/12 02:45:23;;;;;;;5.38;0.98;;;7.20;96.80;;;;;;5133497;27;20500;-79
2022/03/12 02:47:49;;;;;;;2.88;0.82;;;7.30;96.80;;;;;;5114704;27;20043;-79
2022/03/12 02:50:15;;;;;;;5.85;0.73;;;7.30;96.50;;;;;;5131773;27;20417;-79
2022/03/12 02:52:44;;;;;;;7.75;1.10;;;7.30;96.70;;;;;;5113603;27;20027;-79
2022/03/12 02:55:14;;;;;;;6.03;1.00;;;7.30;96.60;;;;;;5131773;27;20046;-79
2022/03/12 02:57:42;;;;;;;2.47;1.05;;;7.30;96.70;;;;;;5131923;27;20023;-79
2022/03/12 03:00:09;;;;;;;6.05;1.05;;;7.30;96.40;;;;;;5133923;27;20024;-79
2022/03/12 03:02:39;;;;;;;6.03;0.90;;;7.30;96.30;;;;;;5132065;27;20072;-79
2022/03/12 03:05:36;;;;;;;5.20;1.02;;;7.30;96.30;;;;;;5129510;27;20054;-79
2022/03/12 03:08:07;;;;;;;4.32;1.10;;;7.20;96.10;;;;;;5131496;27;20055;-79
2022/03/12 03:10:36;;;;;;;6.00;0.93;;;7.20;96.10;;;;;;5129191;27;20023;-79
2022/03/12 03:13:17;;;;;;;7.70;1.08;;;7.20;96.40;;;;;;5112713;27;20016;-79
2022/03/12 03:15:46;;;;;;;5.88;1.10;;;7.10;96.30;;;;;;5131040;27;20031;-79
2022/03/12 03:18:13;;;;;;;5.38;0.88;;;7.10;96.70;;;;;;5133055;27;20023;-79
2022/03/12 03:20:39;;;;;;;2.63;0.70;;;7.10;96.20;;;;;;5135749;27;20429;-79
2022/03/12 03:23:08;;;;;;;6.03;1.50;;;7.10;96.50;;;;;;5136676;27;20020;-79
2022/03/12 03:25:33;;;;;;;3.22;0.85;;;7.10;96.80;;;;;;5112826;27;20441;-79
2022/03/12 03:27:59;;;;;;;2.78;0.88;;;7.10;96.80;;;;;;5131607;27;20043;-79
2022/03/12 03:30:25;;;;;;;3.85;1.02;;;7.10;96.80;;;;;;5132480;27;20479;-78
2022/03/12 03:32:50;;;;;;;5.75;0.98;;;7.10;96.40;;;;;;5132838;27;20027;-78
2022/03/12 03:35:16;;;;;;;9.20;0.98;;;7.10;96.60;;;;;;5130789;27;20011;-78
2022/03/12 03:37:42;;;;;;;7.13;0.82;;;7.10;96.50;;;;;;5112727;27;20392;-78
2022/03/12 03:40:09;;;;;;;7.18;1.00;;;7.10;96.50;;;;;;5112803;27;20038;-78
2022/03/12 03:42:35;;;;;;;7.32;1.05;;;7.10;96.40;;;;;;5131055;27;20487;-78
2022/03/12 03:45:02;;;;;;;6.75;1.23;;;7.10;96.50;;;;;;5114772;27;20046;-78
2022/03/12 03:47:28;;;;;;;4.30;1.17;;;7.10;96.60;;;;;;5107243;28;20046;-78
2022/03/12 03:49:55;;;;;;;3.28;0.90;;;7.10;96.70;;;;;;5106373;27;20057;-78
2022/03/12 03:52:21;;;;;;;7.40;1.33;;;7.10;96.80;;;;;;5131245;27;20030;-78
2022/03/12 03:54:47;;;;;;;5.38;0.90;;;7.20;96.60;;;;;;5133477;27;20104;-78
2022/03/12 03:57:14;;;;;;;5.75;1.08;;;7.20;96.50;;;;;;5105027;27;20023;-79
2022/03/12 03:59:40;;;;;;;4.72;1.27;;;7.10;96.30;;;;;;5133929;27;20491;-78
2022/03/12 04:02:06;;;;;;;4.85;1.15;;;7.10;96.40;;;;;;5113637;27;20035;-79
2022/03/12 04:04:35;;;;;;;3.53;0.77;;;7.10;96.70;;;;;;5131182;27;20027;-78
2022/03/12 04:07:01;;;;;;;5.43;0.90;;;7.20;96.80;;;;;;5129839;27;20035;-79
2022/03/12 04:09:27;;;;;;;4.78;0.80;;;7.20;96.90;;;;;;5131522;27;20103;-78
2022/03/12 04:11:53;;;;;;;6.07;1.10;;;7.20;96.60;;;;;;5113749;28;20543;-78
2022/03/12 04:14:18;;;;;;;8.05;1.00;;;7.30;96.70;;;;;;5130986;27;20055;-78
2022/03/12 04:16:44;;;;;;;2.58;0.85;;;7.30;96.80;;;;;;5131670;27;20035;-78
2022/03/12 04:19:11;;;;;;;4.97;0.82;;;7.40;96.80;;;;;;5135211;27;20014;-78
2022/03/12 04:21:37;;;;;;;6.30;0.90;;;7.40;96.90;;;;;;5135365;27;20047;-78
2022/03/12 04:24:03;;;;;;;5.38;0.73;;;7.50;96.90;;;;;;5137421;27;20019;-78
2022/03/12 04:26:31;;;;;;;5.78;0.70;;;7.50;96.80;;;;;;5116476;27;20552;-79
2022/03/12 04:28:58;;;;;;;4.57;1.00;;;7.60;96.60;;;;;;5133646;27;20027;-79
2022/03/12 04:31:23;;;;;;;3.85;0.80;;;7.70;96.70;;;;;;5134554;27;20524;-79
2022/03/12 04:33:49;;;;;;;4.82;0.80;;;7.60;96.60;;;;;;5135137;27;20020;-79
2022/03/12 04:36:15;;;;;;;2.92;0.70;;;7.60;96.40;;;;;;5137038;27;20077;-79
2022/03/12 04:38:41;;;;;;;5.60;0.80;;;7.60;96.40;;;;;;5134872;27;20027;-79
2022/03/12 04:41:08;;;;;;;2.42;1.08;;;7.60;96.40;;;;;;5134658;27;20113;-79
2022/03/12 04:43:34;;;;;;;4.53;0.90;;;7.60;96.50;;;;;;5134629;27;20035;-79
2022/03/12 04:46:00;;;;;;;3.40;0.80;;;7.60;96.70;;;;;;5134287;27;20119;-79
2022/03/12 04:48:27;;;;;;;5.88;0.90;;;7.60;96.70;;;;;;5135619;27;20087;-79
2022/03/12 04:50:54;;;;;;;5.00;0.77;;;7.60;96.50;;;;;;5136232;27;20034;-79
2022/03/12 04:53:21;;;;;;;6.30;1.00;;;7.50;96.40;;;;;;5134643;27;20020;-78
2022/03/12 04:55:47;;;;;;;7.47;1.17;;;7.50;96.30;;;;;;5116004;27;20479;-79
2022/03/12 04:58:13;;;;;;;4.70;0.80;;;7.40;96.20;;;;;;5134691;27;20471;-79
2022/03/12 05:00:41;;;;;;;4.22;0.80;;;7.30;96.20;;;;;;5134282;27;20031;-79
2022/03/12 05:03:08;;;;;;;2.17;0.70;;;7.40;96.40;;;;;;5136623;27;20023;-79
2022/03/12 05:05:39;;;;;;;3.45;0.77;;;7.30;96.50;;;;;;5134264;27;20054;-79
2022/03/12 05:08:10;;;;;;;7.70;0.90;;;7.30;96.70;;;;;;5114302;27;20038;-79
2022/03/12 05:10:36;;;;;;;3.83;0.82;;;7.30;96.70;;;;;;5115806;27;20118;-79
2022/03/12 05:13:02;;;;;;;3.40;1.00;;;7.30;96.30;;;;;;5134217;27;20491;-79
2022/03/12 05:15:36;;;;;;;3.40;0.73;;;7.30;96.20;;;;;;5134431;27;20027;-79
2022/03/12 05:18:06;;;;;;;4.70;0.90;;;7.20;96.50;;;;;;5134836;27;20027;-79
2022/03/12 05:20:35;;;;;;;5.88;0.90;;;7.20;96.70;;;;;;5134096;27;20640;-79
2022/03/12 05:23:01;;;;;;;4.57;0.82;;;7.20;96.50;;;;;;5134063;27;20046;-79
2022/03/12 05:25:27;;;;;;;5.50;0.75;;;7.20;96.30;;;;;;5134081;27;20095;-79
2022/03/12 05:27:54;;;;;;;3.50;0.80;;;7.10;96.20;;;;;;5133218;27;20023;-79
2022/03/12 05:30:21;;;;;;;6.32;0.70;;;7.10;96.20;;;;;;5134514;27;20023;-79
2022/03/12 05:32:47;;;;;;;5.80;0.68;;;7.00;96.30;;;;;;5116365;27;20034;-79
2022/03/12 05:35:17;;;;;;;8.88;1.00;;;6.90;96.30;;;;;;5133536;27;20051;-78
2022/03/12 05:37:45;;;;;;;3.97;1.00;;;7.00;96.60;;;;;;5133706;27;20106;-78
2022/03/12 05:40:11;;;;;;;5.05;1.00;;;6.90;96.50;;;;;;5133905;27;20031;-79
2022/03/12 05:42:38;;;;;;;6.07;0.85;;;6.90;96.80;;;;;;5133619;27;20032;-79
2022/03/12 05:45:09;;;;;;;4.70;0.82;;;6.90;96.70;;;;;;5116808;27;20051;-78
2022/03/12 05:47:42;;;;;;;4.38;1.20;;;6.90;96.40;;;;;;5131830;27;20444;-78
2022/03/12 05:50:10;;;;;;;7.10;1.00;;;6.80;96.50;;;;;;5115031;27;20029;-78
2022/03/12 05:52:41;;;;;;;6.78;1.13;;;6.80;96.50;;;;;;5133320;27;20031;-78
2022/03/12 05:55:08;;;;;;;6.80;0.93;;;6.80;96.60;;;;;;5133511;27;20019;-78
2022/03/12 05:57:37;;;;;;;6.47;1.10;;;6.70;96.40;;;;;;5133458;27;20520;-78
2022/03/12 06:00:10;;;;;;;5.95;0.82;;;6.70;96.40;;;;;;5116723;27;20031;-78
2022/03/12 06:02:36;;;;;;;3.75;1.10;;;6.60;96.40;;;;;;5133243;27;20019;-78
2022/03/12 06:05:02;;;;;;;3.78;0.82;;;6.60;96.60;;;;;;5114716;27;20027;-78
2022/03/12 06:07:28;;;;;;;7.07;1.20;;;6.60;96.60;;;;;;5114702;27;20039;-78
2022/03/12 06:09:55;;;;;;;6.55;1.35;;;6.60;96.50;;;;;;5133470;27;20031;-78
2022/03/12 06:12:26;;;;;;;5.35;0.93;;;6.60;96.60;;;;;;5134552;27;20101;-78
2022/03/12 06:14:55;;;;;;;5.78;1.05;;;6.60;96.50;;;;;;5134090;27;20026;-78
2022/03/12 06:17:24;;;;;;;5.68;1.02;;;6.50;96.50;;;;;;5114606;27;20076;-78
2022/03/12 06:19:51;;;;;;;3.72;0.88;;;6.50;96.60;;;;;;5132712;27;20015;-78
2022/03/12 06:22:17;;;;;;;6.47;0.90;;;6.50;96.60;;;;;;5114233;27;20502;-78
2022/03/12 06:24:42;;;;;;;6.40;1.02;;;6.40;96.60;;;;;;5131897;27;20023;-78
2022/03/12 06:27:08;;;;;;;4.47;0.93;;;6.40;96.50;;;;;;5115616;27;20118;-78
2022/03/12 06:29:35;;;;;;;7.28;1.75;;;6.40;96.70;;;;;;5132512;27;20476;-78
2022/03/12 06:32:01;;;;;;;4.13;0.80;;;6.40;96.90;;;;;;5132608;27;20027;-78
2022/03/12 06:34:28;;;;;;;5.90;1.15;;;6.30;96.60;;;;;;5132545;27;20076;-78
2022/03/12 06:36:54;;;;;;;7.57;1.17;;;6.40;96.90;;;;;;5114187;27;20026;-78
2022/03/12 06:39:19;;;;;;;4.30;1.05;;;6.40;97.00;;;;;;5115371;27;20026;-78
2022/03/12 06:41:45;;;;;;;5.30;0.90;;;6.50;97.00;;;;;;5132920;27;20094;-78
2022/03/12 06:44:13;;;;;;;5.35;0.90;;;6.50;96.80;;;;;;5132229;27;20061;-78
2022/03/12 06:46:39;;;;;;;5.05;1.15;;;6.50;96.70;;;;;;5132320;27;20091;-78
2022/03/12 06:49:05;;;;;;;3.35;0.88;;;6.40;96.60;;;;;;5132400;27;20023;-78
2022/03/12 06:51:32;;;;;;;4.68;0.93;;;6.40;96.60;;;;;;5132481;27;20027;-78
2022/03/12 06:53:58;;;;;;;5.88;1.20;;;6.40;96.50;;;;;;5132268;27;20029;-78
2022/03/12 06:56:23;;;;;;;5.60;0.90;;;6.40;96.70;;;;;;5131508;27;20023;-79
2022/03/12 06:58:49;;;;;;;6.50;1.17;;;6.40;96.70;;;;;;5132189;27;20106;-79
2022/03/12 07:01:15;;;;;;;7.47;1.30;;;6.40;96.40;;;;;;5131994;27;20019;-78
2022/03/12 07:03:40;;;;;;;2.92;0.80;;;6.40;96.70;;;;;;5131498;27;20038;-78
2022/03/12 07:06:07;;;;;;;4.53;1.00;;;6.40;96.70;;;;;;5133141;27;20027;-78
2022/03/12 07:08:34;;;;;;;5.63;1.05;;;6.40;96.50;;;;;;5131623;27;20027;-78
2022/03/12 07:11:01;;;;;;;2.95;0.90;;;6.40;96.80;;;;;;5131501;27;20119;-78
2022/03/12 07:13:28;;;;;;;5.40;1.08;;;6.40;96.80;;;;;;5130619;27;20030;-78
2022/03/12 07:15:53;;;;;;;7.82;1.45;;;6.40;96.70;;;;;;5131518;27;20046;-78
2022/03/12 07:18:19;;;;;;;6.03;1.08;;;6.40;96.90;;;;;;5132902;27;20070;-78
2022/03/12 07:20:45;;;;;;;5.65;1.25;;;6.50;96.90;;;;;;5112256;27;20031;-78
2022/03/12 07:23:10;;;;;;;9.20;1.48;;;6.50;97.00;;;;;;5131412;27;20015;-79
2022/03/12 07:25:36;;;;;;;4.32;0.90;;;6.60;97.00;;;;;;5130931;27;20031;-78
2022/03/12 07:28:02;;;;;;;3.30;1.10;;;6.70;97.10;;;;;;5129772;27;20043;-78
2022/03/12 07:30:27;;;;;;;3.88;0.90;;;6.70;97.20;;;;;;5113462;27;20106;-78
2022/03/12 07:32:53;;;;;;;7.40;1.20;;;6.70;97.00;;;;;;5132605;27;20115;-78
2022/03/12 07:35:19;;;;;;;5.63;1.00;;;6.80;97.10;;;;;;5112519;27;20035;-78
2022/03/12 07:37:46;;;;;;;2.92;1.10;;;6.80;97.20;;;;;;5131220;27;20031;-78
2022/03/12 07:40:13;;;;;;;5.28;0.90;;;6.90;97.30;;;;;;5130661;27;20065;-79
2022/03/12 07:42:39;;;;;;;8.05;1.25;;;7.00;97.20;;;;;;5130766;27;20462;-79
2022/03/12 07:45:07;;;;;;;7.55;1.00;;;7.10;97.40;;;;;;5131591;27;20473;-79
2022/03/12 07:47:34;;;;;;;5.63;1.25;;;7.10;97.30;;;;;;5130425;27;20043;-79
2022/03/12 07:50:00;;;;;;;4.78;1.00;;;7.20;97.30;;;;;;5112372;27;20022;-78
2022/03/12 07:52:25;;;;;;;5.25;1.00;;;7.30;97.50;;;;;;5129963;27;20098;-79
2022/03/12 07:54:51;;;;;;;5.95;1.42;;;7.40;97.30;;;;;;5131241;27;20128;-79
2022/03/12 07:57:17;;;;;;;8.07;1.65;;;7.40;97.30;;;;;;5132268;27;20506;-79
2022/03/12 07:59:44;;;;;;;4.78;1.10;;;7.50;97.70;;;;;;5129898;27;20015;-78
2022/03/12 08:02:11;;;;;;;8.13;1.10;;;7.50;97.20;;;;;;5129188;27;20444;-79
2022/03/12 08:04:36;;;;;;;6.50;1.10;;;7.60;97.20;;;;;;5129025;27;20027;-78
2022/03/12 08:07:04;;;;;;;7.97;1.05;;;7.70;97.30;;;;;;5128592;27;20083;-78
2022/03/12 08:09:31;;;;;;;6.90;1.20;;;7.70;97.40;;;;;;5128913;28;20011;-79
2022/03/12 08:11:58;;;;;;;6.00;1.40;;;7.80;97.20;;;;;;5129868;27;20030;-79
2022/03/12 08:14:24;;;;;;;5.25;1.05;;;7.80;97.20;;;;;;5129039;27;20015;-79
2022/03/12 08:16:52;;;;;;;7.68;1.17;;;7.90;97.20;;;;;;5128383;27;20057;-79
2022/03/12 08:19:19;;;;;;;6.07;1.40;;;8.00;97.30;;;;;;5108549;28;20167;-78
2022/03/12 08:21:46;;;;;;;9.25;1.52;;;8.00;97.70;;;;;;5129246;27;20035;-79
2022/03/12 08:24:15;;;;;;;7.47;1.52;;;8.10;97.30;;;;;;5131079;27;20027;-79
2022/03/12 08:26:42;;;;;;;9.40;1.65;;;8.20;97.70;;;;;;5129018;28;20045;-79
2022/03/12 08:29:10;;;;;;;6.53;1.20;;;8.30;97.60;;;;;;5110475;27;20505;-79
2022/03/12 08:31:36;;;;;;;5.53;1.45;;;8.40;97.50;;;;;;5129931;27;20019;-79
2022/03/12 08:34:03;;;;;;;9.05;1.40;;;8.50;97.30;;;;;;5129146;27;20034;-79
2022/03/12 08:36:28;;;;;;;8.13;1.30;;;8.60;97.30;;;;;;5130460;27;20098;-79
2022/03/12 08:38:54;;;;;;;7.30;1.10;;;8.60;97.10;;;;;;5131132;27;20026;-79
2022/03/12 08:41:21;;;;;;;6.35;1.05;;;8.70;96.90;;;;;;5112021;28;20033;-79
2022/03/12 08:43:48;;;;;;;9.20;1.52;;;8.70;96.80;;;;;;5130079;27;20039;-79
2022/03/12 08:46:14;;;;;;;6.50;1.25;;;8.70;96.70;;;;;;5130030;27;20572;-79
2022/03/12 08:48:40;;;;;;;7.53;1.17;;;8.70;97.30;;;;;;5130145;27;20039;-79
2022/03/12 08:51:07;;;;;;;6.85;1.65;;;8.80;96.90;;;;;;5131847;27;20071;-79
2022/03/12 08:53:33;;;;;;;5.70;1.10;;;8.80;96.80;;;;;;5129427;27;20024;-80
2022/03/12 08:56:00;;;;;;;6.30;1.33;;;8.80;96.90;;;;;;5108124;28;20056;-80
2022/03/12 08:58:27;;;;;;;8.13;1.38;;;8.80;96.90;;;;;;5130083;27;20027;-80
2022/03/12 09:00:53;;;;;;;5.05;1.15;;;8.90;96.80;;;;;;5130205;28;20070;-80
2022/03/12 09:03:20;;;;;;;4.68;1.20;;;8.90;96.80;;;;;;5132770;27;20015;-80
2022/03/12 09:05:47;;;;;;;7.40;1.30;;;8.90;96.90;;;;;;5134032;27;20494;-80
2022/03/12 09:08:15;;;;;;;9.65;1.27;;;9.00;96.90;;;;;;5113969;27;20038;-80
2022/03/12 09:10:41;;;;;;;7.70;1.58;;;9.10;96.90;;;;;;5133007;27;20026;-80
2022/03/12 09:13:07;;;;;;;7.22;1.35;;;9.10;96.80;;;;;;5133365;27;20095;-80
2022/03/12 09:15:36;;;;;;;5.10;1.27;;;9.20;97.00;;;;;;5132438;27;20459;-79
2022/03/12 09:18:02;;;;;;;4.75;1.30;;;9.20;97.00;;;;;;5135132;27;20027;-80
2022/03/12 09:20:28;;;;;;;12.00;1.48;;;9.30;96.90;;;;;;5133847;27;20019;-80
2022/03/12 09:22:54;;;;;;;6.75;1.67;;;9.30;96.70;;;;;;5114958;27;20479;-80
2022/03/12 09:25:28;;;;;;;5.93;1.50;;;9.40;96.70;;;;;;5127836;27;20035;-81
2022/03/12 09:27:54;;;;;;;6.20;1.20;;;9.40;96.60;;;;;;5122627;27;20042;-80
2022/03/12 09:30:19;;;;;;;8.60;1.80;;;9.40;96.60;;;;;;5124828;27;20023;-80
2022/03/12 09:32:45;;;;;;;8.32;1.63;;;9.50;96.50;;;;;;5133804;27;20019;-81
2022/03/12 09:35:11;;;;;;;7.13;1.55;;;9.50;96.50;;;;;;5131295;27;20483;-81
2022/03/12 09:37:37;;;;;;;5.70;1.45;;;9.60;96.50;;;;;;5139835;27;20025;-78
2022/03/12 09:40:04;;;;;;;7.07;1.35;;;9.60;96.30;;;;;;5130491;27;20026;-78
2022/03/12 09:42:32;;;;;;;7.63;1.20;;;9.60;96.30;;;;;;5142463;27;20026;-78
2022/03/12 09:44:59;;;;;;;6.43;1.50;;;9.70;96.20;;;;;;5141007;27;20045;-77
2022/03/12 09:47:25;;;;;;;8.30;1.60;;;9.70;96.30;;;;;;5132254;27;20057;-78
2022/03/12 09:49:51;;;;;;;5.10;1.50;;;9.80;96.20;;;;;;5130191;27;20023;-80
2022/03/12 09:52:17;;;;;;;8.32;2.58;;;9.90;96.00;;;;;;5129233;27;20046;-80
2022/03/12 09:54:44;;;;;;;8.35;1.70;;;9.90;96.00;;;;;;5141260;27;20020;-78
2022/03/12 09:57:09;;;;;;;12.25;2.05;;;10.00;95.90;;;;;;5132715;27;20461;-78
2022/03/12 09:59:35;;;;;;;10.10;1.83;;;10.20;95.80;;;;;;5135921;27;20122;-79
2022/03/12 10:02:01;;;;;;;5.65;1.45;;;10.30;95.70;;;;;;5135168;27;20023;-79
2022/03/12 10:04:28;;;;;;;6.93;1.50;;;10.30;95.80;;;;;;5131346;27;20071;-79
2022/03/12 10:06:55;;;;;;;4.13;1.48;;;10.50;95.00;;;;;;5141174;27;20027;-79
2022/03/12 10:09:20;;;;;;;8.32;1.50;;;10.50;95.00;;;;;;5134312;27;20505;-79
2022/03/12 10:11:49;;;;;;;4.80;1.33;;;10.50;94.60;;;;;;5139233;27;20057;-79
2022/03/12 10:14:14;;;;;;;4.30;1.33;;;10.50;95.00;;;;;;5135712;27;20031;-79
2022/03/12 10:16:40;;;;;;;7.07;1.10;;;10.60;94.00;;;;;;5132827;27;20031;-79
2022/03/12 10:19:06;;;;;;;3.60;1.00;;;10.60;94.40;;;;;;5134232;27;20122;-80
2022/03/12 10:21:32;;;;;;;6.65;1.05;;;10.60;94.50;;;;;;5133938;27;20030;-79
2022/03/12 10:23:59;;;;;;;4.70;0.98;;;10.60;94.40;;;;;;5119734;27;20033;-80
2022/03/12 10:26:25;;;;;;;6.22;0.95;;;10.60;93.80;;;;;;5135423;27;20498;-79
2022/03/12 10:28:51;;;;;;;6.22;1.23;;;10.60;93.10;;;;;;5128904;27;20023;-79
2022/03/12 10:31:19;;;;;;;6.63;1.10;;;10.60;93.60;;;;;;5119315;27;20023;-79
2022/03/12 10:33:46;;;;;;;7.18;1.10;;;10.60;92.60;;;;;;5131457;27;20059;-78
2022/03/12 10:36:13;;;;;;;6.05;1.33;;;10.60;93.60;;;;;;5142072;27;20097;-79
2022/03/12 10:38:45;;;;;;;10.77;1.63;;;10.60;93.60;;;;;;5132594;27;20063;-79
2022/03/12 10:41:12;;;;;;;5.55;1.02;;;10.60;93.70;;;;;;5113562;27;20559;-79
2022/03/12 10:43:43;;;;;;;7.07;1.02;;;10.70;93.00;;;;;;5139931;27;20410;-79
2022/03/12 10:46:11;;;;;;;5.07;0.80;;;10.70;93.20;;;;;;5131463;27;20442;-79
2022/03/12 10:48:40;;;;;;;9.57;1.45;;;10.80;93.40;;;;;;5139981;27;20026;-79
2022/03/12 10:51:05;;;;;;;6.88;1.25;;;10.80;92.50;;;;;;5135104;27;20493;-78
2022/03/12 10:53:32;;;;;;;6.88;1.10;;;10.80;93.10;;;;;;5135117;27;20362;-79
2022/03/12 10:55:58;;;;;;;6.10;1.15;;;10.80;92.60;;;;;;5124856;27;20019;-79
2022/03/12 10:58:26;;;;;;;4.00;1.00;;;10.80;92.90;;;;;;5113482;27;20027;-79
2022/03/12 11:00:54;;;;;;;5.25;0.90;;;10.80;93.10;;;;;;5140367;27;20039;-78
2022/03/12 11:03:21;;;;;;;6.07;1.02;;;10.90;92.10;;;;;;5134039;27;20387;-78
2022/03/12 11:05:49;;;;;;;7.57;1.58;;;11.00;91.10;;;;;;5135246;27;20079;-78
2022/03/12 11:08:28;;;;;;;5.43;1.05;;;11.10;92.00;;;;;;5136212;27;20103;-79
2022/03/12 11:10:57;;;;;;;6.78;1.05;;;11.10;91.80;;;;;;5131615;27;20159;-78
2022/03/12 11:13:29;;;;;;;5.65;1.25;;;11.20;91.40;;;;;;5120868;27;20091;-78
2022/03/12 11:16:19;;;;;;;6.13;0.90;;;11.30;90.90;;;;;;5131561;27;20015;-79
2022/03/12 11:18:50;;;;;;;4.82;1.05;;;11.40;92.00;;;;;;5119882;27;20036;-79
2022/03/12 11:21:37;;;;;;;6.38;1.20;;;11.40;91.10;;;;;;5131346;27;20054;-79
2022/03/12 11:24:25;;;;;;;4.25;0.82;;;11.40;92.10;;;;;;5146960;27;20029;-79
2022/03/12 11:26:55;;;;;;;4.28;1.15;;;11.60;91.40;;;;;;5067215;28;20040;-79
2022/03/12 11:29:23;;;;;;;5.50;1.10;;;11.60;91.50;;;;;;5048449;28;20139;-79
2022/03/12 11:31:51;;;;;;;4.40;1.00;;;11.60;90.60;;;;;;5064942;28;20044;-79
2022/03/12 11:34:22;;;;;;;4.13;0.95;;;11.70;91.50;;;;;;5066347;28;20056;-80
2022/03/12 11:37:13;;;;;;;9.07;1.15;;;11.80;89.20;;;;;;5063240;28;20566;-83
2022/03/12 11:39:46;;;;;;;2.83;0.88;;;11.90;86.50;;;;;;5061598;28;20420;-82
2022/03/12 11:42:20;;;;;;;4.83;0.80;;;11.90;87.10;;;;;;5056729;28;20051;-82
2022/03/12 11:44:49;;;;;;;4.25;1.00;;;11.90;90.80;;;;;;5064268;28;20056;-83
2022/03/12 11:47:18;;;;;;;3.75;0.95;;;12.10;90.40;;;;;;5048402;28;20040;-83
2022/03/12 11:49:44;;;;;;;6.15;0.88;;;12.20;87.80;;;;;;5080961;28;20032;-82
2022/03/12 11:52:10;;;;;;;3.75;1.10;;;12.40;88.40;;;;;;5051538;28;20059;-82
2022/03/12 11:54:43;;;;;;;5.68;1.10;;;12.40;84.60;;;;;;5068339;28;20529;-83
2022/03/12 11:57:16;;;;;;;6.82;2.20;;;12.60;88.50;;;;;;5068799;28;20032;-82
2022/03/12 11:59:41;;;;;;;4.97;1.10;;;12.70;86.80;;;;;;5068156;28;20031;-82
2022/03/12 12:02:30;;;;;;;7.68;1.75;;;12.80;82.50;;;;;;5067919;28;20032;-82
2022/03/12 12:04:58;;;;;;;4.60;1.40;;;12.90;87.30;;;;;;5108255;27;20515;-82
2022/03/12 12:07:27;;;;;;;4.72;1.20;;;12.90;84.60;;;;;;5120707;27;20028;-82
2022/03/12 12:09:54;;;;;;;4.38;1.05;;;12.70;85.50;;;;;;5128986;27;20515;-83
2022/03/12 12:12:32;;;;;;;5.13;1.27;;;12.70;84.60;;;;;;5140031;27;20082;-83
2022/03/12 12:14:59;;;;;;;5.93;1.27;;;12.90;84.90;;;;;;5130367;27;20058;-82
2022/03/12 12:17:25;;;;;;;9.13;3.03;;;13.00;84.70;;;;;;5129625;27;20107;-83
2022/03/12 12:19:51;;;;;;;7.72;1.85;;;13.00;82.90;;;;;;5137997;27;20466;-82
2022/03/12 12:22:18;;;;;;;6.78;1.70;;;12.90;84.20;;;;;;5110368;27;20023;-81
2022/03/12 12:24:44;;;;;;;8.32;1.40;;;12.80;84.20;;;;;;5119986;28;20023;-82
2022/03/12 12:27:14;;;;;;;5.43;1.33;;;12.80;85.00;;;;;;5113776;28;20050;-82
2022/03/12 12:29:50;;;;;;;4.35;1.20;;;12.70;81.70;;;;;;5111029;27;20019;-82
2022/03/12 12:32:18;;;;;;;5.32;1.80;;;12.70;81.70;;;;;;5115685;27;20126;-82
2022/03/12 12:35:03;;;;;;;5.18;1.27;;;12.80;83.20;;;;;;5128612;27;20017;-81
2022/03/12 12:37:46;;;;;;;5.93;1.27;;;12.90;84.10;;;;;;5139338;27;20015;-81
2022/03/12 12:40:22;;;;;;;6.50;1.48;;;12.90;79.00;;;;;;5132536;27;20483;-82
2022/03/12 12:42:51;;;;;;;5.90;1.42;;;12.90;82.40;;;;;;5135001;27;20111;-81
2022/03/12 12:45:20;;;;;;;8.35;1.52;;;12.80;81.30;;;;;;5132226;27;20043;-82
2022/03/12 12:47:46;;;;;;;4.85;1.63;;;12.80;81.70;;;;;;5138328;27;20026;-81
2022/03/12 12:50:24;;;;;;;6.97;1.40;;;12.90;81.60;;;;;;5120119;27;20433;-81
2022/03/12 12:53:12;;;;;;;4.18;1.10;;;12.90;80.80;;;;;;5116570;27;20019;-80
2022/03/12 12:55:39;;;;;;;6.68;1.52;;;12.80;84.10;;;;;;5141966;27;20041;-81
2022/03/12 12:58:05;;;;;;;3.42;1.10;;;13.00;83.10;;;;;;5112952;27;20503;-81